Mill Run, PA (15464)

9:43 PM EDT on May 28, 2015 (GMT -0400)
Near Evergreen Drive-in | | Change Station
CLOSE
Current Station
Personal Weather Station
Location: Mount Pleasant, PA
Elevation: 1060 ft
Nearby Weather Stations

Elev 1060 ft 40.12 °N, 79.55 °W | Updated 1 minute ago

Clear
Clear
69.1 °F
Feels Like 69.1 °F
N
0.0
Wind Variable Wind from East
Gusts 0.0 mph

Today
High -- | Low -- °F
--% Chance of Precip.
Yesterday
High -- | Low -- °F
Precip. -- in
5:53 AM 8:37 PM
Waxing Gibbous, 80% visible
Pressure 30.24 in
Visibility 15.0 miles
Clouds Scattered Clouds 20000 ft
Dew Point 59 °F
Humidity 70%
Rainfall 0.00 in
Snow Depth Not available.
UV 0 out of 12
Pollen 9.10 out of 12
Air Quality Not available.
Flu Activity Sporadic
METAR KLBE 290050Z 00000KT 15SM SCT200 22/14 A3024

More Conditions Fewer Conditions

Pressure 30.24 in
Visibility 15.0 miles
Clouds Scattered Clouds 20000 ft
Dew Point 59 °F
Humidity 70%
Rainfall 0.00 in
Snow Depth Not available.
UV 0 out of 12
Pollen 9.10 out of 12
Air Quality Not available.
Flu Activity Sporadic
METAR KLBE 290050Z 00000KT 15SM SCT200 22/14 A3024

More Conditions Fewer Conditions

10-Day Weather Forecast

Almanac

Astronomy

May. 28, 2015 Rise Set
Actual Time
Civil Twilight
Nautical Twilight
Astronomical Twilight
Moon
Length of Visible Light
Length of Day
Tomorrow will be .
, % of the Moon is Illuminated

Today's Extremes

State Highs State Lows

Community

WunderPhotos

Upload Photos

1,825,122 photos uploaded!

WunderBlogs® & News

Nearby

Air Quality

  Air Quality AQ Index Pollutant
Not available.

Snow Depth

Station Depth Elevation

Earthquake Activity

City Distance Mag. Time & Date
Minimum magnitude displayed is 2.5.

Coastal Water Temperatures

Place Temperature

Stations

Nearby Weather Stations

Station Location Temp. Windchill Dew Point Humidity Wind Precip. Elev Updated Type